Time;durP1;ratioP1;P1;durP2;ratioP2;P2;SDS_P1;SDS_P2;PMS_P1;PMS_P2;Temp;Humidity;BMP_temperature;BMP_pressure;BME280_temperature;BME280_humidity;BME280_pressure;Samples;Min_cycle;Max_cycle;Signal;HPM_P1;HPM_P2
2022/12/05 00:02:01;;;;;;;45.67;21.63;;;;;;;1.87;100.00;100956.28;4995888;28;20209;-73
2022/12/05 00:04:27;;;;;;;47.80;21.70;;;;;;;1.87;100.00;100952.88;4993271;28;20287;-73
2022/12/05 00:06:55;;;;;;;50.07;21.47;;;;;;;1.85;100.00;100955.41;4993549;28;20204;-73
2022/12/05 00:09:21;;;;;;;48.30;21.80;;;;;;;1.86;100.00;100949.41;4995986;28;20413;-73
2022/12/05 00:11:47;;;;;;;46.77;22.47;;;;;;;1.87;100.00;100956.28;4993495;28;20216;-73
2022/12/05 00:14:14;;;;;;;49.77;21.63;;;;;;;1.88;100.00;100957.16;4992162;28;20212;-72
2022/12/05 00:16:42;;;;;;;52.17;22.57;;;;;;;1.86;100.00;100946.84;4994742;28;20242;-73
2022/12/05 00:19:11;;;;;;;46.17;22.57;;;;;;;1.86;100.00;100962.25;4992267;28;20560;-72
2022/12/05 00:21:38;;;;;;;45.63;22.00;;;;;;;1.87;100.00;100963.16;4998936;28;20303;-73
2022/12/05 00:24:09;;;;;;;47.67;22.20;;;;;;;1.88;100.00;100964.88;4991458;28;21010;-73
2022/12/05 00:26:35;;;;;;;46.23;21.57;;;;;;;1.88;100.00;100962.28;4994909;28;20222;-73
2022/12/05 00:29:02;;;;;;;42.53;20.90;;;;;;;1.89;100.00;100969.19;4993063;28;20231;-73
2022/12/05 00:31:29;;;;;;;49.17;21.60;;;;;;;1.87;100.00;100974.28;4997484;28;20832;-73
2022/12/05 00:33:59;;;;;;;54.00;23.63;;;;;;;1.90;100.00;100978.63;4992433;28;20597;-73
2022/12/05 00:36:28;;;;;;;45.53;21.83;;;;;;;1.89;100.00;100976.91;4995887;28;20768;-73
2022/12/05 00:38:55;;;;;;;47.87;21.70;;;;;;;1.88;100.00;100976.03;4994790;28;20627;-72
2022/12/05 00:41:25;;;;;;;42.60;20.07;;;;;;;1.87;100.00;100969.16;4995578;28;20680;-73
2022/12/05 00:43:52;;;;;;;51.23;23.77;;;;;;;1.89;100.00;100974.31;4995996;28;20297;-73
2022/12/05 00:46:24;;;;;;;48.90;21.30;;;;;;;1.88;100.00;100964.88;4995788;28;20293;-73
2022/12/05 00:48:56;;;;;;;56.20;23.87;;;;;;;1.89;100.00;100969.19;4992361;28;20581;-72
2022/12/05 00:51:25;;;;;;;42.40;20.27;;;;;;;1.87;100.00;100965.72;4994503;28;20569;-72
2022/12/05 00:53:52;;;;;;;46.87;20.17;;;;;;;1.88;100.00;100964.88;4989255;28;20228;-72
2022/12/05 00:56:20;;;;;;;46.70;23.53;;;;;;;1.87;100.00;100965.72;4993261;28;20221;-72
2022/12/05 00:58:49;;;;;;;38.50;20.70;;;;;;;1.84;100.00;100956.25;4995341;28;20208;-75
2022/12/05 01:01:18;;;;;;;44.63;20.93;;;;;;;1.84;100.00;100963.09;4997034;28;20208;-74
2022/12/05 01:03:45;;;;;;;44.63;22.00;;;;;;;1.82;100.00;100955.34;4996813;28;20232;-72
2022/12/05 01:06:12;;;;;;;46.03;21.10;;;;;;;1.81;100.00;100961.34;4990550;28;20232;-74
2022/12/05 01:08:39;;;;;;;45.43;20.83;;;;;;;1.82;100.00;100962.22;4975114;28;20320;-74
2022/12/05 01:11:07;;;;;;;45.97;21.03;;;;;;;1.81;100.00;100963.03;4987559;28;20205;-73
2022/12/05 01:13:35;;;;;;;46.53;21.43;;;;;;;1.80;100.00;100963.91;4992021;28;20712;-74
2022/12/05 01:16:03;;;;;;;44.50;21.27;;;;;;;1.79;100.00;100964.72;4993687;28;20234;-74
2022/12/05 01:18:30;;;;;;;45.67;21.73;;;;;;;1.76;100.00;100963.00;4992292;28;20212;-75
2022/12/05 01:20:57;;;;;;;43.40;20.83;;;;;;;1.76;100.00;100955.28;4993971;28;20205;-74
2022/12/05 01:23:24;;;;;;;46.47;21.60;;;;;;;1.75;100.00;100962.97;4996951;28;20211;-74
2022/12/05 01:25:52;;;;;;;43.60;20.37;;;;;;;1.75;100.00;100962.97;4991240;28;20590;-74
2022/12/05 01:28:19;;;;;;;42.47;20.50;;;;;;;1.75;100.00;100962.97;4990981;28;20240;-74
2022/12/05 01:30:47;;;;;;;43.03;18.87;;;;;;;1.73;100.00;100962.94;4995671;28;20209;-74
2022/12/05 01:33:16;;;;;;;41.30;20.67;;;;;;;1.74;100.00;100967.22;4992681;28;20410;-74
2022/12/05 01:35:44;;;;;;;44.67;21.63;;;;;;;1.73;100.00;100965.50;4992390;28;20220;-74
2022/12/05 01:38:12;;;;;;;40.17;20.07;;;;;;;1.70;100.00;100961.16;4996653;28;20284;-74
2022/12/05 01:40:39;;;;;;;44.63;20.57;;;;;;;1.72;100.00;100957.78;4996506;28;20215;-73
2022/12/05 01:43:11;;;;;;;41.70;20.03;;;;;;;1.69;100.00;100950.88;4996904;28;20952;-74
2022/12/05 01:45:39;;;;;;;41.00;20.53;;;;;;;1.70;100.00;100957.75;4996480;28;20285;-75
2022/12/05 01:48:14;;;;;;;43.63;21.83;;;;;;;1.68;100.00;100955.16;4994297;28;20683;-75
2022/12/05 01:50:42;;;;;;;41.07;19.47;;;;;;;1.69;100.00;100953.47;4989827;28;20211;-73
2022/12/05 01:53:10;;;;;;;45.60;21.07;;;;;;;1.68;100.00;100955.16;4991816;28;20555;-74
2022/12/05 01:55:38;;;;;;;44.90;20.20;;;;;;;1.69;100.00;100944.03;4995922;28;20229;-74
2022/12/05 01:58:06;;;;;;;42.37;20.73;;;;;;;1.67;100.00;100947.41;4989305;28;20200;-74
2022/12/05 02:00:32;;;;;;;44.37;20.10;;;;;;;1.69;100.00;100943.19;4995083;28;20482;-74
2022/12/05 02:03:04;;;;;;;38.30;18.87;;;;;;;1.67;100.00;100945.72;4989913;28;20673;-74
2022/12/05 02:05:33;;;;;;;46.83;21.43;;;;;;;1.67;100.00;100945.72;4990193;28;20572;-74
2022/12/05 02:08:04;;;;;;;43.20;19.80;;;;;;;1.68;100.00;100952.56;4990549;28;20217;-74
2022/12/05 02:10:35;;;;;;;49.13;20.73;;;;;;;1.69;100.00;100943.19;4987204;28;20224;-74
2022/12/05 02:13:10;;;;;;;43.40;19.93;;;;;;;1.67;100.00;100942.25;4992599;28;20209;-74
2022/12/05 02:15:42;;;;;;;37.60;19.53;;;;;;;1.66;100.00;100943.97;4995643;28;20224;-74
2022/12/05 02:18:23;;;;;;;45.83;21.20;;;;;;;1.67;100.00;100948.28;4990152;28;20239;-74
2022/12/05 02:21:06;;;;;;;44.87;20.03;;;;;;;1.67;100.00;100953.44;4992598;28;20203;-74
2022/12/05 02:23:51;;;;;;;37.13;18.13;;;;;;;1.65;100.00;100944.84;4992416;28;20555;-74
2022/12/05 02:26:38;;;;;;;45.03;18.90;;;;;;;1.66;100.00;100949.13;4996084;28;20731;-72
2022/12/05 02:29:52;;;;;;;36.67;19.13;;;;;;;1.67;100.00;100957.69;4992841;28;20480;-74
2022/12/05 02:32:32;;;;;;;35.63;18.03;;;;;;;1.67;100.00;100945.72;4996373;28;20228;-74
2022/12/05 02:35:05;;;;;;;38.73;18.17;;;;;;;1.68;100.00;100950.00;4990826;28;20231;-74
2022/12/05 02:37:40;;;;;;;45.63;20.27;;;;;;;1.67;100.00;100945.72;4994053;28;20291;-73
2022/12/05 02:40:13;;;;;;;43.17;18.67;;;;;;;1.67;100.00;100955.13;4993427;28;20331;-74
2022/12/05 02:42:46;;;;;;;40.20;19.00;;;;;;;1.69;100.00;100948.31;4992784;28;20209;-73
2022/12/05 02:45:15;;;;;;;43.73;19.13;;;;;;;1.69;100.00;100945.75;4991233;28;20237;-73
2022/12/05 02:47:47;;;;;;;40.00;19.47;;;;;;;1.68;100.00;100949.16;4991373;28;20208;-74
2022/12/05 02:50:17;;;;;;;40.07;17.97;;;;;;;1.68;100.00;100938.88;4991593;28;20204;-74
2022/12/05 02:52:47;;;;;;;42.87;18.60;;;;;;;1.67;100.00;100943.16;4994034;28;20204;-74
2022/12/05 02:55:15;;;;;;;34.83;17.93;;;;;;;1.67;100.00;100937.13;4993644;28;20228;-74
2022/12/05 02:57:45;;;;;;;41.47;17.80;;;;;;;1.67;100.00;100942.25;4987693;28;20202;-73
2022/12/05 03:00:12;;;;;;;35.67;16.63;;;;;;;1.67;100.00;100937.13;4990742;28;20208;-73
2022/12/05 03:02:40;;;;;;;38.30;17.77;;;;;;;1.66;100.00;100936.25;4995031;28;20220;-73
2022/12/05 03:05:17;;;;;;;39.27;16.07;;;;;;;1.66;100.00;100932.84;4993733;28;20219;-74
2022/12/05 03:07:48;;;;;;;29.10;15.53;;;;;;;1.65;100.00;100939.69;4998975;28;20208;-73
2022/12/05 03:10:19;;;;;;;37.57;16.43;;;;;;;1.66;100.00;100932.84;4992207;28;20219;-74
2022/12/05 03:12:50;;;;;;;32.43;16.07;;;;;;;1.66;100.00;100935.41;4992819;28;20309;-74
2022/12/05 03:15:19;;;;;;;34.33;16.43;;;;;;;1.66;100.00;100946.53;4991399;28;20242;-73
2022/12/05 03:17:52;;;;;;;36.43;16.57;;;;;;;1.66;100.00;100941.41;4991333;28;20206;-74
2022/12/05 03:20:27;;;;;;;34.43;14.50;;;;;;;1.66;100.00;100943.97;4992705;28;20743;-74
2022/12/05 03:22:58;;;;;;;38.07;16.07;;;;;;;1.65;100.00;100942.25;4995420;28;20365;-74
2022/12/05 03:25:33;;;;;;;35.10;15.03;;;;;;;1.66;100.00;100950.84;4992811;28;20221;-73
2022/12/05 03:28:04;;;;;;;33.83;15.53;;;;;;;1.66;100.00;100943.13;4996267;28;20209;-73
2022/12/05 03:30:34;;;;;;;36.07;16.23;;;;;;;1.65;100.00;100944.84;4994183;28;20572;-74
2022/12/05 03:33:05;;;;;;;37.07;15.57;;;;;;;1.65;100.00;100942.25;4996273;28;20214;-74
2022/12/05 03:35:40;;;;;;;33.83;15.37;;;;;;;1.65;100.00;100943.94;4997254;28;20664;-74
2022/12/05 03:38:10;;;;;;;30.80;15.17;;;;;;;1.65;100.00;100944.84;4996404;28;20196;-74
2022/12/05 03:40:43;;;;;;;30.80;14.07;;;;;;;1.65;100.00;100944.84;4996885;28;20212;-74
2022/12/05 03:43:14;;;;;;;37.90;16.17;;;;;;;1.63;100.00;100941.34;4995876;28;20776;-73
2022/12/05 03:45:48;;;;;;;31.03;14.10;;;;;;;1.63;100.00;100932.78;4996217;28;20240;-74
2022/12/05 03:48:18;;;;;;;32.17;15.27;;;;;;;1.63;100.00;100933.63;4995745;28;20197;-73
2022/12/05 03:50:49;;;;;;;29.47;13.90;;;;;;;1.63;100.00;100930.22;4996487;28;20201;-73
2022/12/05 03:53:19;;;;;;;37.30;15.90;;;;;;;1.62;100.00;100934.50;4990925;28;20300;-74
2022/12/05 03:55:53;;;;;;;32.77;14.43;;;;;;;1.64;100.00;100925.09;4995022;28;20225;-74
2022/12/05 03:58:25;;;;;;;32.60;14.80;;;;;;;1.63;100.00;100937.94;4994804;28;20693;-74
2022/12/05 04:00:54;;;;;;;27.87;12.80;;;;;;;1.63;100.00;100933.63;4993734;28;20212;-74
2022/12/05 04:03:26;;;;;;;32.27;14.00;;;;;;;1.64;100.00;100937.09;4994491;28;20205;-74
2022/12/05 04:05:57;;;;;;;30.37;15.13;;;;;;;1.63;100.00;100938.78;4992275;28;20743;-74
2022/12/05 04:08:29;;;;;;;31.63;13.90;;;;;;;1.63;100.00;100936.22;4995769;28;20201;-74
2022/12/05 04:11:00;;;;;;;31.87;14.87;;;;;;;1.64;100.00;100937.09;4995842;28;20209;-72
2022/12/05 04:13:33;;;;;;;34.63;14.23;;;;;;;1.65;100.00;100942.25;4994733;28;20200;-74
2022/12/05 04:18:55;;;;;;;30.50;14.43;;;;;;;1.65;100.00;100947.41;4995301;28;20206;-73
2022/12/05 04:21:39;;;;;;;31.73;14.47;;;;;;;1.66;100.00;100949.13;4995698;28;20209;-73
2022/12/05 04:27:08;;;;;;;25.50;13.93;;;;;;;1.66;100.00;100949.13;4993200;28;20209;-74
2022/12/05 04:29:40;;;;;;;31.77;14.73;;;;;;;1.67;100.00;100952.53;4993841;28;20487;-73
2022/12/05 04:32:10;;;;;;;30.47;14.27;;;;;;;1.67;100.00;100961.16;4996253;28;20209;-74
2022/12/05 04:34:38;;;;;;;36.57;15.47;;;;;;;1.67;100.00;100953.44;4996402;28;20304;-73
2022/12/05 04:37:12;;;;;;;33.40;15.37;;;;;;;1.66;100.00;100956.84;4992105;28;20212;-73
2022/12/05 04:39:47;;;;;;;35.27;15.20;;;;;;;1.69;100.00;100962.03;4993495;28;20210;-74
2022/12/05 04:42:17;;;;;;;33.93;15.03;;;;;;;1.68;100.00;100960.28;4993008;28;20708;-74
2022/12/05 04:44:53;;;;;;;29.83;13.77;;;;;;;1.69;100.00;100953.47;4992907;28;20205;-74
2022/12/05 04:47:22;;;;;;;34.70;14.13;;;;;;;1.68;100.00;100959.44;5016549;23;20228;-74
2022/12/05 04:49:49;;;;;;;33.50;14.77;;;;;;;1.68;100.00;100962.00;5002029;28;20711;-73
2022/12/05 04:52:18;;;;;;;28.47;13.97;;;;;;;1.69;100.00;100962.03;4985632;28;20697;-73
2022/12/05 04:54:48;;;;;;;29.90;14.43;;;;;;;1.69;100.00;100962.03;4985659;28;20205;-73
2022/12/05 04:57:19;;;;;;;30.23;14.67;;;;;;;1.70;100.00;100955.16;5087072;28;20353;-72
2022/12/05 04:59:46;;;;;;;31.90;15.23;;;;;;;1.69;100.00;100956.88;5098508;28;20712;-73
2022/12/05 05:02:17;;;;;;;31.60;13.60;;;;;;;1.70;100.00;100957.75;5100946;28;20211;-73
2022/12/05 05:04:47;;;;;;;31.73;15.27;;;;;;;1.73;100.00;100954.38;5089933;28;20206;-73
2022/12/05 05:07:14;;;;;;;31.30;14.77;;;;;;;1.71;100.00;100954.34;5086762;28;20217;-73
2022/12/05 05:09:43;;;;;;;30.70;13.70;;;;;;;1.72;100.00;100957.78;5101229;28;20282;-73
2022/12/05 05:12:10;;;;;;;27.43;14.07;;;;;;;1.73;100.00;100956.94;5098427;28;20201;-73
2022/12/05 05:14:36;;;;;;;27.70;13.03;;;;;;;1.73;100.00;100962.94;5102657;28;20210;-73
2022/12/05 05:17:04;;;;;;;33.03;15.00;;;;;;;1.72;100.00;100955.19;5110772;27;20222;-72
2022/12/05 05:19:30;;;;;;;28.47;13.37;;;;;;;1.74;100.00;100963.78;5105506;28;20190;-73
2022/12/05 05:21:56;;;;;;;29.50;13.70;;;;;;;1.74;100.00;100963.78;5100968;28;20635;-74
2022/12/05 05:24:25;;;;;;;29.63;14.33;;;;;;;1.74;100.00;100967.22;5105079;28;20205;-73
2022/12/05 05:26:53;;;;;;;34.67;14.83;;;;;;;1.75;100.00;100963.81;5104627;28;20262;-72
2022/12/05 05:29:19;;;;;;;34.67;14.73;;;;;;;1.76;100.00;100970.72;5083273;28;20206;-74
2022/12/05 05:31:45;;;;;;;26.83;14.23;;;;;;;1.77;100.00;100966.41;5085811;28;20197;-72
2022/12/05 05:34:14;;;;;;;35.87;15.50;;;;;;;1.76;100.00;100970.72;5085596;28;20224;-73
2022/12/05 05:36:41;;;;;;;31.60;14.23;;;;;;;1.76;100.00;100968.13;5097496;28;20232;-73
2022/12/05 05:39:12;;;;;;;27.50;13.40;;;;;;;1.78;100.00;100960.44;5097747;28;20253;-74
2022/12/05 05:41:38;;;;;;;28.77;14.10;;;;;;;1.77;100.00;100967.28;5101850;28;20212;-73
2022/12/05 05:44:06;;;;;;;29.93;13.93;;;;;;;1.77;100.00;100957.00;5100592;28;20205;-73
2022/12/05 05:46:34;;;;;;;32.47;13.73;;;;;;;1.77;100.00;100971.56;5089843;28;20216;-74
2022/12/05 05:49:01;;;;;;;32.87;13.83;;;;;;;1.78;100.00;100971.59;5102649;28;20197;-73
2022/12/05 05:51:29;;;;;;;32.47;13.80;;;;;;;1.78;100.00;100973.31;5100279;28;20585;-73
2022/12/05 05:53:55;;;;;;;30.93;14.17;;;;;;;1.79;100.00;100973.31;5097526;28;20217;-73
2022/12/05 05:56:22;;;;;;;26.90;13.80;;;;;;;1.77;100.00;100967.28;5100636;28;20224;-73
2022/12/05 05:58:54;;;;;;;33.60;14.83;;;;;;;1.76;100.00;100970.72;5103267;28;20203;-73
2022/12/05 06:01:22;;;;;;;34.00;13.57;;;;;;;1.79;100.00;100968.16;5083105;28;20219;-73
2022/12/05 06:03:50;;;;;;;36.20;14.47;;;;;;;1.80;100.00;100971.63;5084227;28;20225;-72
2022/12/05 06:06:16;;;;;;;31.67;13.87;;;;;;;1.78;100.00;100966.44;5099928;28;20780;-74
2022/12/05 06:08:44;;;;;;;27.90;12.37;;;;;;;1.80;100.00;100969.03;5103575;28;20820;-73
2022/12/05 06:11:12;;;;;;;28.43;12.97;;;;;;;1.80;100.00;100964.75;5102625;28;20256;-74
2022/12/05 06:13:39;;;;;;;32.07;14.40;;;;;;;1.81;100.00;100965.63;5094464;28;20262;-73
2022/12/05 06:16:08;;;;;;;28.47;13.47;;;;;;;1.80;100.00;100975.03;5101597;27;20316;-73
2022/12/05 06:18:36;;;;;;;31.63;14.73;;;;;;;1.80;100.00;100969.91;5099874;28;20201;-73
2022/12/05 06:21:04;;;;;;;27.83;13.90;;;;;;;1.81;100.00;100970.75;5083064;28;20904;-72
2022/12/05 06:23:31;;;;;;;24.10;12.60;;;;;;;1.82;100.00;100975.94;5099412;28;20205;-74
2022/12/05 06:25:57;;;;;;;31.87;13.13;;;;;;;1.81;100.00;100978.47;5076038;27;20228;-73
2022/12/05 06:28:25;;;;;;;31.47;14.30;;;;;;;1.82;100.00;100972.50;5102282;28;20201;-73
2022/12/05 06:30:51;;;;;;;26.97;13.27;;;;;;;1.80;100.00;100980.19;5081075;28;20234;-73
2022/12/05 06:33:18;;;;;;;31.43;14.83;;;;;;;1.79;100.00;100980.16;5102650;28;20197;-73
2022/12/05 06:35:46;;;;;;;30.70;13.77;;;;;;;1.81;100.00;100978.47;5094767;28;20218;-72
2022/12/05 06:38:13;;;;;;;31.30;14.27;;;;;;;1.81;100.00;100983.63;5095816;28;20204;-73
2022/12/05 06:40:40;;;;;;;30.90;13.13;;;;;;;1.81;100.00;100978.47;5097862;28;20193;-72
2022/12/05 06:43:07;;;;;;;27.53;13.43;;;;;;;1.81;100.00;100988.75;5098656;28;20197;-73
2022/12/05 06:45:33;;;;;;;28.30;13.67;;;;;;;1.81;100.00;100988.75;5096004;28;20202;-72
2022/12/05 06:48:00;;;;;;;26.57;13.43;;;;;;;1.81;100.00;100996.47;5102502;28;20205;-73
2022/12/05 06:50:26;;;;;;;25.67;12.73;;;;;;;1.80;100.00;100995.63;5085515;28;20221;-74
2022/12/05 06:52:54;;;;;;;28.50;13.87;;;;;;;1.81;100.00;101001.63;5101641;28;20204;-73
2022/12/05 06:55:20;;;;;;;34.87;14.97;;;;;;;1.81;100.00;101002.50;5096891;28;20298;-73
2022/12/05 06:57:46;;;;;;;32.00;13.93;;;;;;;1.83;100.00;101005.06;5092466;28;20279;-74
2022/12/05 07:02:58;;;;;;;30.60;13.63;;;;;;;1.84;100.00;101009.38;5086802;28;20202;-72
2022/12/05 07:05:25;;;;;;;28.87;13.80;;;;;;;1.85;100.00;101013.69;5090735;28;20223;-73
2022/12/05 07:07:51;;;;;;;33.73;14.87;;;;;;;1.85;100.00;101016.28;5087544;28;20205;-74
2022/12/05 07:10:19;;;;;;;31.90;14.33;;;;;;;1.83;100.00;101011.09;5083160;28;20224;-74
2022/12/05 07:12:45;;;;;;;33.87;14.43;;;;;;;1.84;100.00;101017.09;5102460;28;20190;-73
2022/12/05 07:15:12;;;;;;;30.70;14.27;;;;;;;1.82;100.00;101018.78;5099564;28;20202;-74
2022/12/05 07:17:38;;;;;;;39.13;16.27;;;;;;;1.83;100.00;101023.97;5086373;28;20232;-73
2022/12/05 07:20:09;;;;;;;37.70;16.03;;;;;;;1.85;100.00;101024.84;5106213;28;20195;-74
2022/12/05 07:22:36;;;;;;;35.70;15.53;;;;;;;1.84;100.00;101025.66;5104356;28;20316;-72
2022/12/05 07:25:04;;;;;;;36.43;16.27;;;;;;;1.83;100.00;101021.38;5097751;28;20471;-73
2022/12/05 07:27:32;;;;;;;36.43;15.97;;;;;;;1.86;100.00;101023.97;5082580;28;20210;-74
2022/12/05 07:29:59;;;;;;;36.33;15.70;;;;;;;1.87;100.00;101022.28;5094608;28;20295;-73
2022/12/05 07:32:26;;;;;;;40.30;15.70;;;;;;;1.87;100.00;101030.88;5082559;28;20283;-73
2022/12/05 07:34:52;;;;;;;44.50;15.77;;;;;;;1.88;100.00;101029.16;5078618;28;20193;-72
2022/12/05 07:37:19;;;;;;;37.50;16.40;;;;;;;1.88;100.00;101034.28;5103047;28;20694;-72
2022/12/05 07:39:45;;;;;;;36.00;14.97;;;;;;;1.89;100.00;101033.47;5089916;28;20198;-72
2022/12/05 07:42:11;;;;;;;38.57;16.97;;;;;;;1.88;100.00;101034.28;5087141;28;20209;-73
2022/12/05 07:44:39;;;;;;;35.23;15.67;;;;;;;1.88;100.00;101035.19;5085371;28;20764;-73
2022/12/05 07:47:05;;;;;;;35.33;15.83;;;;;;;1.89;100.00;101039.47;5083509;28;20224;-74
2022/12/05 07:49:32;;;;;;;41.57;18.00;;;;;;;1.90;100.00;101032.63;5099847;28;20860;-73
2022/12/05 07:51:59;;;;;;;34.87;15.30;;;;;;;1.91;100.00;101028.34;5105503;27;20219;-73
2022/12/05 07:54:26;;;;;;;33.40;15.67;;;;;;;1.90;100.00;101030.06;5084780;28;20524;-73
2022/12/05 07:56:52;;;;;;;51.73;18.20;;;;;;;1.91;100.00;101028.34;5102995;28;20280;-73
2022/12/05 07:59:19;;;;;;;38.43;17.00;;;;;;;1.92;100.00;101027.50;5108453;28;20193;-73
2022/12/05 08:01:46;;;;;;;38.10;15.47;;;;;;;1.92;100.00;101027.50;5086356;28;20229;-73
2022/12/05 08:04:13;;;;;;;43.80;17.00;;;;;;;1.93;100.00;101024.94;5105164;28;20201;-73
2022/12/05 08:06:39;;;;;;;46.20;16.93;;;;;;;1.94;100.00;101029.25;5105520;28;20253;-72
2022/12/05 08:09:06;;;;;;;48.67;17.10;;;;;;;1.95;100.00;101033.53;5090236;28;20276;-73
2022/12/05 08:11:35;;;;;;;42.17;17.33;;;;;;;1.95;100.00;101023.25;5081877;28;20237;-73
2022/12/05 08:14:02;;;;;;;44.37;17.80;;;;;;;1.95;100.00;101025.84;5105447;28;20211;-73
2022/12/05 08:16:30;;;;;;;54.13;18.43;;;;;;;1.95;100.00;101019.84;5103583;28;20715;-73
2022/12/05 08:19:00;;;;;;;41.47;18.73;;;;;;;1.98;100.00;101025.88;5092563;28;20240;-73
2022/12/05 08:21:27;;;;;;;48.23;19.13;;;;;;;2.00;100.00;101028.50;5101954;28;20202;-73
2022/12/05 08:23:54;;;;;;;43.33;17.13;;;;;;;2.04;100.00;101032.81;5085650;28;20198;-74
2022/12/05 08:26:24;;;;;;;48.27;18.73;;;;;;;2.08;100.00;101032.91;5105718;28;20213;-72
2022/12/05 08:28:51;;;;;;;50.13;18.37;;;;;;;2.15;100.00;101020.16;5099614;28;20720;-73
2022/12/05 08:31:19;;;;;;;48.20;17.37;;;;;;;2.17;100.00;101031.31;5097431;28;20221;-73
2022/12/05 08:33:46;;;;;;;56.20;20.77;;;;;;;2.18;100.00;101030.47;5092862;28;20210;-73
2022/12/05 08:36:15;;;;;;;49.83;19.10;;;;;;;2.23;100.00;101039.13;5103346;28;20251;-73
2022/12/05 08:38:42;;;;;;;48.70;19.60;;;;;;;2.23;100.00;101037.44;5085574;28;20244;-73
2022/12/05 08:41:10;;;;;;;53.63;20.43;;;;;;;2.25;100.00;101033.16;5101943;28;20616;-72
2022/12/05 08:43:36;;;;;;;49.33;19.40;;;;;;;2.29;100.00;101041.78;5087063;28;20194;-73
2022/12/05 08:46:04;;;;;;;52.00;21.03;;;;;;;2.28;100.00;101035.75;5102109;28;20639;-73
2022/12/05 08:48:31;;;;;;;63.60;21.90;;;;;;;2.36;100.00;101035.03;5098232;28;20190;-73
2022/12/05 08:50:58;;;;;;;53.63;20.00;;;;;;;2.34;100.00;101042.72;5103961;28;20245;-74
2022/12/05 08:53:26;;;;;;;52.77;19.23;;;;;;;2.38;100.00;101041.91;5106397;28;20193;-74
2022/12/05 08:55:52;;;;;;;59.70;20.90;;;;;;;2.36;100.00;101040.19;5086566;28;20210;-73
2022/12/05 08:58:19;;;;;;;59.43;21.93;;;;;;;2.37;100.00;101049.63;5103824;28;20756;-73
2022/12/05 09:00:45;;;;;;;52.83;20.60;;;;;;;2.38;100.00;101044.50;5103236;28;20201;-73
2022/12/05 09:03:12;;;;;;;55.23;20.67;;;;;;;2.37;100.00;101047.03;5090075;28;20206;-73
2022/12/05 09:05:38;;;;;;;52.40;20.33;;;;;;;2.33;100.00;101041.00;5100906;28;20591;-73
2022/12/05 09:08:05;;;;;;;58.27;20.77;;;;;;;2.36;100.00;101055.63;5099076;28;20202;-73
2022/12/05 09:10:33;;;;;;;58.37;21.03;;;;;;;2.36;100.00;101051.34;5085523;28;20289;-72
2022/12/05 09:13:00;;;;;;;61.77;20.97;;;;;;;2.35;100.00;101054.75;5107764;28;20208;-73
2022/12/05 09:15:26;;;;;;;60.53;21.03;;;;;;;2.34;100.00;101058.16;5100888;28;20217;-73
2022/12/05 09:17:52;;;;;;;53.07;19.40;;;;;;;2.35;100.00;101056.47;5103859;28;20229;-74
2022/12/05 09:20:19;;;;;;;55.13;20.73;;;;;;;2.32;100.00;101057.25;5097504;28;20243;-74
2022/12/05 09:22:46;;;;;;;52.70;19.93;;;;;;;2.34;100.00;101060.75;5102131;28;20205;-73
2022/12/05 09:25:12;;;;;;;59.63;21.17;;;;;;;2.35;100.00;101059.03;5099595;28;20202;-74
2022/12/05 09:27:40;;;;;;;61.23;22.03;;;;;;;2.32;100.00;101057.25;5084597;28;20232;-73
2022/12/05 09:30:08;;;;;;;53.63;21.00;;;;;;;2.31;100.00;101057.25;5102788;28;20200;-73
2022/12/05 09:32:34;;;;;;;61.40;22.00;;;;;;;2.31;100.00;101059.84;5100892;28;20826;-73
2022/12/05 09:35:00;;;;;;;65.77;21.03;;;;;;;2.33;100.00;101048.72;5102346;28;20463;-73
2022/12/05 09:37:27;;;;;;;57.20;21.07;;;;;;;2.38;100.00;101051.34;5099431;28;20217;-73
2022/12/05 09:39:53;;;;;;;51.33;20.50;;;;;;;2.37;100.00;101047.03;5104321;28;20929;-73
2022/12/05 09:42:45;;;;;;;50.27;18.90;;;;;;;2.39;100.00;101046.25;5103847;28;20246;-74
2022/12/05 09:45:18;;;;;;;56.63;21.23;;;;;;;2.41;100.00;101046.22;5102893;28;20193;-73
2022/12/05 09:47:56;;;;;;;58.13;20.47;;;;;;;2.41;100.00;101057.41;5098873;28;20217;-72
2022/12/05 09:50:26;;;;;;;56.53;20.23;;;;;;;2.43;100.00;101050.56;5084232;28;20311;-73
2022/12/05 09:53:06;;;;;;;53.93;21.13;;;;;;;2.45;100.00;101048.88;5102147;28;20202;-74
2022/12/05 09:55:43;;;;;;;59.43;20.57;;;;;;;2.45;100.00;101046.31;5104796;28;20669;-74
2022/12/05 09:58:27;;;;;;;61.47;21.43;;;;;;;2.45;100.00;101043.72;5098541;28;20201;-72
2022/12/05 10:00:59;;;;;;;55.23;21.27;;;;;;;2.45;100.00;101040.31;5099336;28;20209;-73
2022/12/05 10:03:31;;;;;;;59.23;21.53;;;;;;;2.46;100.00;101032.59;5099715;28;20193;-73
2022/12/05 10:06:08;;;;;;;58.40;21.27;;;;;;;2.48;100.00;101037.78;5080086;28;20599;-73
2022/12/05 10:08:47;;;;;;;65.00;22.47;;;;;;;2.55;100.00;101037.00;5106308;28;20189;-73
2022/12/05 10:11:21;;;;;;;62.17;21.43;;;;;;;2.59;100.00;101035.34;5080816;28;20509;-73
2022/12/05 10:14:00;;;;;;;66.40;23.53;;;;;;;2.62;100.00;101033.66;5096059;28;20209;-73
2022/12/05 10:16:31;;;;;;;55.37;21.60;;;;;;;2.64;100.00;101038.84;5095604;28;20279;-74
2022/12/05 10:19:00;;;;;;;63.20;21.90;;;;;;;2.65;100.00;101038.84;5096897;28;20200;-73
2022/12/05 10:21:31;;;;;;;56.90;20.90;;;;;;;2.66;100.00;101039.72;5097766;28;20200;-73
2022/12/05 10:24:00;;;;;;;64.43;23.13;;;;;;;2.66;100.00;101037.16;5089550;28;20208;-73
2022/12/05 10:26:31;;;;;;;56.40;21.63;;;;;;;2.62;100.00;101046.53;5101662;28;20750;-74
2022/12/05 10:29:09;;;;;;;58.27;20.47;;;;;;;2.62;100.00;101048.22;5097991;28;20203;-74
2022/12/05 10:31:39;;;;;;;66.60;21.93;;;;;;;2.57;100.00;101037.91;5100612;28;20979;-74
2022/12/05 10:34:14;;;;;;;63.17;22.83;;;;;;;2.58;100.00;101038.75;5081477;28;20663;-73
2022/12/05 10:36:51;;;;;;;57.80;22.13;;;;;;;2.54;100.00;101047.28;5098219;28;20236;-73
2022/12/05 10:39:18;;;;;;;56.27;21.50;;;;;;;2.55;100.00;101044.75;5082065;28;20223;-74
2022/12/05 10:41:44;;;;;;;54.87;23.00;;;;;;;2.54;100.00;101040.41;5101846;28;20197;-73
2022/12/05 10:44:12;;;;;;;64.53;23.83;;;;;;;2.56;100.00;101043.03;5102551;28;20200;-74
2022/12/05 10:46:39;;;;;;;60.33;23.77;;;;;;;2.60;100.00;101037.06;5083122;23;20291;-73
2022/12/05 10:49:10;;;;;;;64.17;21.73;;;;;;;2.65;100.00;101035.41;4981217;28;20209;-73
2022/12/05 10:51:38;;;;;;;62.30;21.93;;;;;;;2.68;100.00;101038.03;4979805;28;20242;-73
2022/12/05 10:54:15;;;;;;;51.77;22.10;;;;;;;2.74;100.00;101032.94;4983903;28;20490;-74
2022/12/05 10:56:44;;;;;;;63.73;23.33;;;;;;;2.76;100.00;101038.13;4984436;28;20239;-73
2022/12/05 10:59:13;;;;;;;69.83;21.83;;;;;;;2.76;100.00;101032.97;5049314;28;20217;-73
2022/12/05 11:01:45;;;;;;;65.20;24.90;;;;;;;2.80;100.00;101045.06;4980501;28;20244;-73
2022/12/05 11:04:21;;;;;;;58.53;21.60;;;;;;;2.85;100.00;101045.97;4979356;28;20208;-72
2022/12/05 11:06:51;;;;;;;60.97;23.07;;;;;;;2.87;100.00;101041.72;4977808;28;20231;-73
2022/12/05 11:09:20;;;;;;;62.10;23.17;;;;;;;2.89;100.00;101034.00;4979692;28;20197;-72
2022/12/05 11:12:03;;;;;;;61.13;23.17;;;;;;;2.90;100.00;101039.16;4980568;28;20685;-73
2022/12/05 11:14:33;;;;;;;64.57;23.43;;;;;;;2.91;100.00;101033.16;4987434;28;20257;-73
2022/12/05 11:17:01;;;;;;;70.50;24.13;;;;;;;2.92;100.00;101034.91;4979191;28;20229;-72
2022/12/05 11:19:30;;;;;;;65.30;24.60;;;;;;;2.94;100.00;101029.78;4984961;28;20197;-73
2022/12/05 11:21:57;;;;;;;56.23;22.60;;;;;;;2.96;100.00;101030.66;4981895;28;20205;-73
2022/12/05 11:24:27;;;;;;;65.73;22.83;;;;;;;2.98;100.00;101028.94;4976865;28;20206;-73
2022/12/05 11:26:55;;;;;;;67.67;23.20;;;;;;;2.98;100.00;101027.22;4990930;28;20589;-73
2022/12/05 11:29:31;;;;;;;55.83;24.07;;;;;;;3.02;100.00;101028.97;4998197;28;20203;-73